Terminal Aerodrome Forecast
Issued by NWS Wilmington, NC

Home | Current Version | Previous Version | Text Only | Print | Product List | Glossary On
Versions: 1 2 3 4 5 6 7 8 9 10 11 12 13 14 15 16 17 18 19
181
FTUS42 KILM 162320
TAFLBT
TAF
KLBT 162320Z 1700/1724 08003KT P6SM OVC012
     FM170200 06003KT P6SM OVC007
     FM170600 04002KT 4SM BR OVC003
     FM171700 24005KT P6SM SCT005 BKN015
     FM171900 24010KT P6SM FEW007 SCT250=

USA.gov is the U.S. government's official web portal to all federal, state and local government web resources and services.